createdAt,value
2023-02-13T00:00:44.426Z,21.10
2023-02-13T00:03:11.088Z,19.35
2023-02-13T00:05:37.774Z,21.45
2023-02-13T00:08:06.905Z,20.95
2023-02-13T00:10:36.614Z,20.52
2023-02-13T00:13:03.327Z,21.73
2023-02-13T00:15:30.261Z,20.35
2023-02-13T00:17:57.032Z,20.50
2023-02-13T00:20:23.883Z,19.20
2023-02-13T00:22:50.667Z,19.25
2023-02-13T00:25:19.608Z,19.85
2023-02-13T00:27:46.386Z,19.75
2023-02-13T00:30:15.704Z,19.40
2023-02-13T00:32:42.346Z,19.55
2023-02-13T00:35:11.768Z,19.02
2023-02-13T00:37:38.426Z,20.35
2023-02-13T00:40:08.084Z,20.50
2023-02-13T00:42:34.741Z,20.65
2023-02-13T00:45:01.353Z,19.25
2023-02-13T00:47:28.084Z,20.13
2023-02-13T00:49:54.772Z,19.70
2023-02-13T00:52:21.382Z,20.42
2023-02-13T00:54:48.280Z,19.63
2023-02-13T00:57:14.958Z,20.17
2023-02-13T00:59:41.610Z,20.05
2023-02-13T01:02:08.366Z,20.50
2023-02-13T01:04:35.095Z,20.23
2023-02-13T01:07:01.768Z,19.50
2023-02-13T01:09:30.866Z,21.15
2023-02-13T01:11:57.602Z,21.23
2023-02-13T01:14:24.310Z,19.83
2023-02-13T01:16:55.821Z,21.25
2023-02-13T01:19:22.482Z,21.27
2023-02-13T01:21:49.086Z,20.58
2023-02-13T01:24:15.756Z,20.83
2023-02-13T01:26:42.462Z,20.00
2023-02-13T01:29:12.394Z,21.35
2023-02-13T01:31:39.170Z,20.60
2023-02-13T01:34:05.964Z,21.52
2023-02-13T01:36:32.628Z,21.58
2023-02-13T01:38:59.554Z,19.88
2023-02-13T01:41:29.980Z,19.42
2023-02-13T01:44:01.473Z,20.90
2023-02-13T01:46:38.666Z,20.00
2023-02-13T01:49:25.906Z,21.15
2023-02-13T01:51:58.846Z,21.73
2023-02-13T01:54:31.624Z,20.02
2023-02-13T01:57:05.745Z,20.98
2023-02-13T01:59:43.636Z,21.00
2023-02-13T02:02:10.670Z,21.27
2023-02-13T02:04:39.656Z,20.95
2023-02-13T02:07:16.438Z,21.05
2023-02-13T02:09:44.634Z,19.65
2023-02-13T02:12:31.973Z,22.40
2023-02-13T02:15:01.490Z,21.88
2023-02-13T02:17:28.149Z,21.17
2023-02-13T02:20:39.120Z,21.83
2023-02-13T02:23:08.546Z,22.10
2023-02-13T02:26:25.624Z,20.75
2023-02-13T02:29:20.450Z,21.42
2023-02-13T02:32:19.793Z,21.25
2023-02-13T02:35:08.430Z,20.55
2023-02-13T02:37:59.351Z,22.55
2023-02-13T02:40:59.278Z,21.92
2023-02-13T02:43:51.110Z,21.70
2023-02-13T02:47:01.785Z,21.88
2023-02-13T02:49:50.133Z,22.13
2023-02-13T02:52:22.148Z,20.55
2023-02-13T02:55:06.557Z,21.23
2023-02-13T02:57:58.361Z,21.23
2023-02-13T03:00:46.618Z,22.30
2023-02-13T03:03:37.395Z,21.40
2023-02-13T03:06:16.732Z,21.80
2023-02-13T03:09:10.030Z,22.45
2023-02-13T03:11:57.057Z,21.75
2023-02-13T03:14:26.484Z,21.35
2023-02-13T03:17:11.971Z,20.90
2023-02-13T03:20:14.194Z,21.23
2023-02-13T03:23:08.610Z,21.23
2023-02-13T03:28:44.530Z,21.25
2023-02-13T03:31:34.542Z,21.50
2023-02-13T03:34:25.074Z,22.70
2023-02-13T03:37:26.284Z,21.48
2023-02-13T03:40:18.136Z,20.73
2023-02-13T03:42:55.083Z,23.05
2023-02-13T03:45:45.914Z,21.98
2023-02-13T03:48:46.233Z,22.00
2023-02-13T03:51:19.152Z,22.48
2023-02-13T03:53:52.159Z,22.03
2023-02-13T03:56:40.617Z,22.42
2023-02-13T03:59:16.201Z,22.35
2023-02-13T04:01:58.474Z,22.92
2023-02-13T04:04:48.424Z,22.70
2023-02-13T04:07:29.458Z,22.33
2023-02-13T04:10:10.775Z,22.05
2023-02-13T04:12:52.981Z,22.13
2023-02-13T04:15:22.415Z,22.15
2023-02-13T04:18:05.147Z,21.83
2023-02-13T04:20:32.729Z,23.13
2023-02-13T04:23:05.675Z,22.48
2023-02-13T04:25:32.429Z,22.23
2023-02-13T04:27:59.253Z,22.80
2023-02-13T04:30:26.037Z,22.00
2023-02-13T04:32:52.866Z,22.10
2023-02-13T04:35:19.847Z,22.02
2023-02-13T04:37:46.520Z,21.92
2023-02-13T04:40:13.279Z,24.90
2023-02-13T04:42:39.939Z,21.15
2023-02-13T04:45:06.890Z,22.17
2023-02-13T04:47:33.565Z,22.30
2023-02-13T04:50:00.228Z,22.48
2023-02-13T04:52:27.030Z,22.67
2023-02-13T04:54:54.173Z,21.70
2023-02-13T04:57:23.035Z,21.55
2023-02-13T04:59:52.134Z,22.15
2023-02-13T05:02:18.749Z,20.90
2023-02-13T05:04:47.986Z,22.15
2023-02-13T05:07:14.676Z,22.13
2023-02-13T05:09:43.936Z,21.70
2023-02-13T05:12:10.554Z,21.33
2023-02-13T05:14:37.240Z,21.30
2023-02-13T05:17:06.403Z,22.08
2023-02-13T05:19:33.023Z,22.20
2023-02-13T05:22:18.461Z,22.08
2023-02-13T05:24:47.604Z,23.00
2023-02-13T05:27:14.274Z,20.77
2023-02-13T05:29:40.935Z,22.48
2023-02-13T05:32:07.645Z,21.48
2023-02-13T05:34:34.293Z,20.30
2023-02-13T05:37:01.121Z,22.50
2023-02-13T05:39:30.186Z,22.48
2023-02-13T05:41:56.787Z,22.00
2023-02-13T05:44:23.399Z,21.17
2023-02-13T05:46:50.064Z,21.27
2023-02-13T05:49:16.789Z,21.60
2023-02-13T05:51:43.844Z,21.42
2023-02-13T05:54:10.614Z,21.73
2023-02-13T05:56:39.814Z,22.77
2023-02-13T05:59:06.764Z,20.90
2023-02-13T06:01:33.473Z,20.02
2023-02-13T06:04:03.979Z,21.20
2023-02-13T06:06:30.932Z,20.63
2023-02-13T06:08:59.732Z,21.67
2023-02-13T06:11:28.506Z,23.02
2023-02-13T06:13:55.204Z,22.48
2023-02-13T06:16:22.568Z,21.05
2023-02-13T06:18:51.654Z,23.60
2023-02-13T06:21:18.349Z,23.27
2023-02-13T06:23:45.115Z,23.85
2023-02-13T06:26:14.068Z,25.10
2023-02-13T06:28:40.770Z,25.98
2023-02-13T06:31:07.628Z,25.00
2023-02-13T06:33:34.493Z,23.90
2023-02-13T06:36:01.138Z,29.52
2023-02-13T06:38:30.612Z,25.95
2023-02-13T06:41:01.762Z,24.55
2023-02-13T06:43:28.420Z,23.55
2023-02-13T06:45:55.088Z,23.27
2023-02-13T06:48:21.932Z,23.35
2023-02-13T06:50:48.758Z,22.17
2023-02-13T06:53:19.996Z,21.90
2023-02-13T06:55:49.389Z,21.88
2023-02-13T06:58:16.040Z,22.95
2023-02-13T07:00:42.751Z,21.55
2023-02-13T07:03:10.702Z,20.08
2023-02-13T07:05:43.242Z,21.98
2023-02-13T07:08:11.548Z,20.67
2023-02-13T07:10:41.857Z,21.73
2023-02-13T07:13:09.086Z,20.73
2023-02-13T07:15:39.109Z,21.35
2023-02-13T07:18:06.677Z,21.90
2023-02-13T07:20:34.001Z,21.02
2023-02-13T07:23:02.238Z,21.65
2023-02-13T07:25:29.552Z,22.60
2023-02-13T07:28:00.834Z,21.38
2023-02-13T07:30:27.618Z,21.33
2023-02-13T07:32:59.528Z,21.48
2023-02-13T07:35:26.237Z,22.80
2023-02-13T07:37:56.649Z,21.02
2023-02-13T07:40:23.442Z,20.08
2023-02-13T07:42:50.223Z,22.50
2023-02-13T07:45:16.995Z,21.10
2023-02-13T07:47:44.271Z,20.73
2023-02-13T07:50:11.750Z,21.42
2023-02-13T07:52:38.520Z,22.90
2023-02-13T07:55:06.316Z,21.40
2023-02-13T07:57:33.871Z,21.92
2023-02-13T08:00:03.074Z,21.80
2023-02-13T08:02:32.005Z,21.73
2023-02-13T08:05:03.359Z,21.48
2023-02-13T08:07:32.156Z,21.23
2023-02-13T08:10:17.314Z,21.90
2023-02-13T08:12:46.987Z,20.85
2023-02-13T08:15:15.702Z,21.10
2023-02-13T08:17:42.319Z,22.13
2023-02-13T08:20:09.758Z,21.08
2023-02-13T08:22:39.604Z,21.05
2023-02-13T08:25:07.397Z,21.30
2023-02-13T08:27:34.341Z,22.98
2023-02-13T08:30:01.910Z,21.08
2023-02-13T08:32:28.792Z,22.55
2023-02-13T08:34:55.450Z,22.10
2023-02-13T08:37:22.229Z,23.05
2023-02-13T08:39:48.824Z,22.50
2023-02-13T08:42:20.428Z,20.95
2023-02-13T08:44:47.121Z,22.20
2023-02-13T08:47:13.805Z,22.90
2023-02-13T08:49:40.532Z,23.35
2023-02-13T08:52:07.197Z,23.10
2023-02-13T08:54:39.026Z,22.13
2023-02-13T08:57:05.742Z,22.85
2023-02-13T08:59:34.937Z,21.67
2023-02-13T09:02:01.661Z,21.88
2023-02-13T09:04:28.351Z,21.73
2023-02-13T09:06:55.807Z,21.77
2023-02-13T09:09:22.730Z,20.70
2023-02-13T09:11:52.438Z,21.77
2023-02-13T09:14:19.283Z,21.67
2023-02-13T09:16:45.939Z,22.33
2023-02-13T09:19:14.910Z,21.85
2023-02-13T09:21:41.646Z,22.40
2023-02-13T09:24:10.539Z,22.42
2023-02-13T09:26:37.580Z,20.60
2023-02-13T09:29:04.328Z,19.40
2023-02-13T09:31:31.162Z,20.58
2023-02-13T09:34:00.408Z,21.90
2023-02-13T09:36:27.042Z,21.80
2023-02-13T09:38:55.897Z,21.58
2023-02-13T09:41:34.152Z,22.30
2023-02-13T09:44:38.911Z,21.92
2023-02-13T09:47:30.882Z,21.45
2023-02-13T09:50:06.409Z,19.73
2023-02-13T09:52:38.169Z,20.63
2023-02-13T09:55:25.592Z,20.73
2023-02-13T09:58:01.601Z,19.45
2023-02-13T10:00:46.348Z,21.17
2023-02-13T10:03:22.504Z,20.70
2023-02-13T10:06:00.602Z,20.00
2023-02-13T10:08:27.442Z,21.25
2023-02-13T10:11:16.899Z,20.70
2023-02-13T10:14:05.929Z,20.05
2023-02-13T10:16:45.730Z,20.48
2023-02-13T10:19:35.952Z,21.33
2023-02-13T10:22:10.046Z,20.23
2023-02-13T10:24:57.473Z,20.90
2023-02-13T10:27:28.059Z,20.95
2023-02-13T10:30:05.593Z,22.00
2023-02-13T10:32:38.477Z,21.70
2023-02-13T10:35:19.362Z,20.43
2023-02-13T10:37:51.691Z,21.42
2023-02-13T10:40:19.514Z,20.92
2023-02-13T10:43:08.712Z,20.88
2023-02-13T10:46:04.055Z,20.77
2023-02-13T10:49:00.924Z,19.58
2023-02-13T10:51:44.190Z,19.98
2023-02-13T10:54:47.775Z,20.20
2023-02-13T10:58:18.956Z,20.42
2023-02-13T11:00:48.251Z,20.58
2023-02-13T11:03:24.483Z,19.23
2023-02-13T11:05:52.465Z,18.90
2023-02-13T11:08:25.583Z,19.08
2023-02-13T11:10:52.997Z,19.58
2023-02-13T11:13:23.090Z,19.23
2023-02-13T11:16:03.972Z,19.30
2023-02-13T11:18:37.793Z,18.23
2023-02-13T11:21:14.243Z,18.48
2023-02-13T11:23:49.472Z,18.98
2023-02-13T11:26:29.265Z,17.67
2023-02-13T11:29:01.902Z,17.48
2023-02-13T11:31:36.972Z,18.70
2023-02-13T11:34:33.933Z,18.35
2023-02-13T11:37:12.611Z,16.90
2023-02-13T11:39:43.730Z,16.40
2023-02-13T11:42:28.782Z,16.70
2023-02-13T11:45:20.348Z,17.08
2023-02-13T11:47:47.540Z,16.92
2023-02-13T11:50:27.915Z,15.82
2023-02-13T11:53:03.341Z,16.25
2023-02-13T11:55:42.755Z,16.23
2023-02-13T11:58:12.276Z,16.15
2023-02-13T12:00:41.741Z,16.55
2023-02-13T12:03:33.429Z,15.70
2023-02-13T12:06:05.478Z,15.82
2023-02-13T12:08:35.026Z,17.23
2023-02-13T12:11:06.592Z,16.35
2023-02-13T12:13:38.950Z,16.08
2023-02-13T12:16:30.218Z,16.30
2023-02-13T12:19:00.113Z,15.20
2023-02-13T12:22:02.681Z,15.32
2023-02-13T12:24:55.479Z,15.40
2023-02-13T12:27:43.857Z,14.18
2023-02-13T12:30:29.252Z,14.75
2023-02-13T12:33:04.829Z,14.13
2023-02-13T12:35:43.924Z,11.73
2023-02-13T12:38:43.245Z,12.40
2023-02-13T12:41:25.954Z,10.98
2023-02-13T12:44:27.912Z,10.52
2023-02-13T12:47:27.208Z,11.18
2023-02-13T12:50:30.456Z,11.50
2023-02-13T12:53:29.613Z,11.30
2023-02-13T12:56:37.817Z,10.77
2023-02-13T12:59:07.544Z,10.20
2023-02-13T13:02:07.282Z,10.35
2023-02-13T13:04:55.531Z,9.90
2023-02-13T13:08:00.047Z,11.10
2023-02-13T13:10:52.525Z,9.18
2023-02-13T13:13:28.290Z,8.52
2023-02-13T13:16:06.665Z,8.88
2023-02-13T13:18:45.322Z,8.73
2023-02-13T13:21:24.399Z,9.60
2023-02-13T13:24:04.787Z,8.98
2023-02-13T13:26:46.446Z,8.30
2023-02-13T13:29:21.230Z,8.13
2023-02-13T13:32:02.243Z,7.80
2023-02-13T13:34:31.498Z,8.98
2023-02-13T13:37:19.818Z,9.18
2023-02-13T13:40:19.968Z,9.15
2023-02-13T13:43:02.172Z,9.70
2023-02-13T13:45:40.764Z,9.38
2023-02-13T13:48:47.671Z,9.95
2023-02-13T13:51:18.792Z,10.13
2023-02-13T13:54:03.498Z,10.45
2023-02-13T13:56:53.371Z,10.13
2023-02-13T13:59:51.596Z,10.07
2023-02-13T14:02:21.274Z,10.25
2023-02-13T14:05:28.140Z,9.95
2023-02-13T14:08:04.177Z,10.30
2023-02-13T14:10:33.906Z,10.93
2023-02-13T14:13:07.742Z,10.38
2023-02-13T14:15:42.300Z,10.82
2023-02-13T14:18:20.190Z,10.38
2023-02-13T14:20:51.559Z,10.15
2023-02-13T14:23:26.960Z,10.18
2023-02-13T14:26:18.704Z,10.60
2023-02-13T14:28:51.544Z,10.00
2023-02-13T14:31:30.113Z,10.23
2023-02-13T14:34:05.348Z,9.98
2023-02-13T14:36:42.158Z,9.70
2023-02-13T14:39:23.885Z,9.15
2023-02-13T14:41:58.759Z,8.95
2023-02-13T14:44:45.219Z,9.43
2023-02-13T14:47:23.133Z,9.23
2023-02-13T14:49:51.083Z,8.18
2023-02-13T14:52:26.418Z,8.27
2023-02-13T14:55:03.621Z,9.38
2023-02-13T14:57:41.752Z,8.75
2023-02-13T15:00:45.738Z,9.10
2023-02-13T15:03:34.428Z,8.30
2023-02-13T15:06:05.748Z,7.70
2023-02-13T15:08:36.720Z,7.82
2023-02-13T15:11:03.974Z,7.38
2023-02-13T15:13:37.417Z,7.93
2023-02-13T15:18:36.941Z,8.00
2023-02-13T15:21:04.174Z,8.20
2023-02-13T15:23:33.533Z,7.57
2023-02-13T15:26:05.886Z,7.63
2023-02-13T15:28:33.814Z,7.90
2023-02-13T15:31:24.319Z,7.30
2023-02-13T15:33:51.775Z,8.30
2023-02-13T15:36:21.631Z,7.05
2023-02-13T15:38:48.315Z,7.43
2023-02-13T15:41:23.566Z,7.70
2023-02-13T15:43:55.826Z,7.85
2023-02-13T15:46:27.426Z,7.80
2023-02-13T15:48:55.481Z,7.40
2023-02-13T15:51:25.424Z,7.25
2023-02-13T15:53:56.573Z,7.88
2023-02-13T15:56:24.396Z,8.25
2023-02-13T15:58:52.577Z,9.32
2023-02-13T16:01:19.620Z,8.82
2023-02-13T16:03:59.080Z,7.57
2023-02-13T16:06:26.716Z,8.80
2023-02-13T16:08:58.127Z,7.07
2023-02-13T16:11:40.798Z,8.60
2023-02-13T16:14:27.764Z,7.68
2023-02-13T16:17:17.636Z,7.63
2023-02-13T16:19:59.732Z,7.50
2023-02-13T16:22:37.842Z,8.13
2023-02-13T16:25:15.813Z,8.07
2023-02-13T16:28:03.656Z,7.88
2023-02-13T16:30:41.985Z,8.30
2023-02-13T16:33:16.114Z,9.85
2023-02-13T16:35:45.885Z,8.23
2023-02-13T16:38:31.624Z,9.23
2023-02-13T16:41:19.700Z,9.27
2023-02-13T16:43:48.075Z,10.93
2023-02-13T16:46:29.702Z,10.52
2023-02-13T16:48:56.385Z,9.75
2023-02-13T16:51:44.154Z,10.98
2023-02-13T16:54:10.798Z,11.98
2023-02-13T16:56:47.891Z,10.32
2023-02-13T16:59:30.019Z,11.43
2023-02-13T17:02:03.774Z,12.23
2023-02-13T17:04:33.117Z,10.02
2023-02-13T17:06:59.884Z,10.45
2023-02-13T17:09:31.338Z,10.90
2023-02-13T17:11:58.032Z,9.73
2023-02-13T17:14:24.723Z,9.70
2023-02-13T17:16:51.563Z,8.77
2023-02-13T17:19:18.253Z,8.90
2023-02-13T17:21:45.077Z,9.00
2023-02-13T17:24:19.496Z,9.02
2023-02-13T17:26:46.196Z,10.73
2023-02-13T17:29:12.910Z,9.18
2023-02-13T17:31:39.962Z,9.75
2023-02-13T17:34:06.802Z,10.02
2023-02-13T17:36:33.559Z,9.68
2023-02-13T17:39:00.213Z,10.38
2023-02-13T17:41:29.789Z,10.15
2023-02-13T17:43:56.770Z,9.27
2023-02-13T17:46:23.570Z,9.35
2023-02-13T17:48:50.336Z,11.48
2023-02-13T17:51:17.052Z,11.43
2023-02-13T17:53:43.794Z,10.35
2023-02-13T17:56:10.518Z,10.57
2023-02-13T17:58:39.429Z,10.13
2023-02-13T18:01:06.131Z,11.45
2023-02-13T18:03:35.386Z,11.65
2023-02-13T18:06:02.096Z,11.48
2023-02-13T18:08:29.025Z,12.23
2023-02-13T18:10:55.965Z,11.32
2023-02-13T18:13:22.955Z,12.10
2023-02-13T18:15:49.742Z,13.02
2023-02-13T18:18:17.661Z,13.93
2023-02-13T18:20:48.289Z,14.98
2023-02-13T18:23:15.042Z,14.80
2023-02-13T18:25:41.812Z,16.65
2023-02-13T18:28:08.884Z,17.25
2023-02-13T18:30:41.321Z,16.55
2023-02-13T18:33:08.050Z,16.60
2023-02-13T18:35:37.326Z,15.77
2023-02-13T18:38:04.056Z,15.20
2023-02-13T18:40:30.762Z,16.48
2023-02-13T18:42:57.488Z,15.50
2023-02-13T18:45:24.228Z,15.43
2023-02-13T18:47:53.138Z,17.85
2023-02-13T18:50:24.439Z,17.52
2023-02-13T18:52:51.115Z,16.48
2023-02-13T18:55:19.975Z,17.27
2023-02-13T18:57:52.369Z,17.00
2023-02-13T19:00:23.186Z,17.20
2023-02-13T19:02:49.986Z,17.30
2023-02-13T19:05:16.719Z,16.73
2023-02-13T19:07:45.884Z,16.58
2023-02-13T19:10:12.650Z,15.98
2023-02-13T19:12:39.320Z,17.13
2023-02-13T19:15:06.350Z,16.77
2023-02-13T19:17:34.855Z,17.02
2023-02-13T19:20:06.821Z,18.25
2023-02-13T19:22:35.971Z,17.42
2023-02-13T19:25:02.933Z,16.63
2023-02-13T19:27:29.635Z,17.73
2023-02-13T19:29:59.106Z,17.83
2023-02-13T19:32:25.801Z,18.17
2023-02-13T19:34:52.952Z,18.38
2023-02-13T19:37:19.628Z,17.70
2023-02-13T19:39:46.348Z,16.15
2023-02-13T19:42:13.045Z,16.02
2023-02-13T19:44:39.826Z,15.95
2023-02-13T19:47:06.565Z,14.38
2023-02-13T19:49:33.315Z,14.60
2023-02-13T19:52:00.742Z,14.18
2023-02-13T19:54:27.469Z,13.13
2023-02-13T19:57:00.133Z,12.88
2023-02-13T19:59:27.711Z,13.25
2023-02-13T20:01:57.058Z,13.15
2023-02-13T20:04:23.932Z,13.27
2023-02-13T20:06:51.045Z,12.90
2023-02-13T20:09:17.746Z,12.68
2023-02-13T20:11:46.777Z,14.02
2023-02-13T20:14:15.164Z,13.77
2023-02-13T20:16:42.918Z,14.13
2023-02-13T20:19:11.668Z,13.88
2023-02-13T20:21:42.006Z,13.60
2023-02-13T20:24:12.739Z,14.07
2023-02-13T20:26:42.530Z,12.80
2023-02-13T20:29:09.594Z,13.23
2023-02-13T20:31:36.844Z,13.88
2023-02-13T20:34:08.620Z,13.23
2023-02-13T20:36:35.299Z,14.18
2023-02-13T20:39:04.614Z,14.30
2023-02-13T20:41:34.497Z,12.95
2023-02-13T20:44:03.945Z,13.18
2023-02-13T20:46:31.918Z,13.43
2023-02-13T20:48:59.045Z,14.05
2023-02-13T20:51:28.456Z,13.48
2023-02-13T20:53:58.913Z,13.70
2023-02-13T20:56:26.548Z,14.85
2023-02-13T20:58:58.544Z,13.50
2023-02-13T21:01:28.743Z,15.02
2023-02-13T21:03:59.024Z,14.63
2023-02-13T21:06:31.891Z,13.95
2023-02-13T21:08:58.866Z,14.53
2023-02-13T21:11:28.253Z,13.73
2023-02-13T21:13:56.491Z,14.15
2023-02-13T21:16:25.973Z,15.27
2023-02-13T21:18:55.382Z,14.77
2023-02-13T21:21:26.280Z,14.52
2023-02-13T21:23:54.470Z,15.18
2023-02-13T21:26:21.769Z,14.65
2023-02-13T21:28:49.800Z,14.27
2023-02-13T21:31:24.140Z,14.10
2023-02-13T21:33:53.725Z,13.20
2023-02-13T21:36:22.961Z,14.85
2023-02-13T21:38:49.607Z,13.80
2023-02-13T21:41:18.597Z,13.98
2023-02-13T21:43:48.515Z,13.43
2023-02-13T21:46:24.952Z,14.48
2023-02-13T21:49:12.920Z,14.65
2023-02-13T21:51:40.031Z,13.95
2023-02-13T21:54:06.703Z,14.40
2023-02-13T21:56:38.826Z,14.48
2023-02-13T21:59:05.803Z,14.25
2023-02-13T22:01:35.637Z,14.30
2023-02-13T22:04:06.999Z,13.77
2023-02-13T22:06:36.094Z,14.48
2023-02-13T22:09:08.291Z,13.82
2023-02-13T22:11:35.857Z,14.65
2023-02-13T22:14:04.016Z,13.65
2023-02-13T22:16:34.442Z,14.43
2023-02-13T22:19:03.802Z,14.82
2023-02-13T22:21:32.255Z,14.88
2023-02-13T22:23:59.404Z,14.20
2023-02-13T22:26:29.114Z,14.18
2023-02-13T22:29:00.259Z,15.40
2023-02-13T22:31:27.459Z,14.20
2023-02-13T22:34:05.718Z,14.20
2023-02-13T22:36:34.531Z,14.60
2023-02-13T22:39:01.500Z,13.88
2023-02-13T22:41:30.913Z,14.98
2023-02-13T22:43:57.959Z,15.13
2023-02-13T22:46:29.615Z,14.73
2023-02-13T22:48:56.796Z,15.63
2023-02-13T22:51:29.710Z,15.30
2023-02-13T22:53:59.544Z,15.33
2023-02-13T22:56:28.194Z,14.48
2023-02-13T22:58:57.712Z,14.82
2023-02-13T23:01:26.072Z,15.00
2023-02-13T23:03:53.055Z,14.65
2023-02-13T23:06:22.716Z,14.15
2023-02-13T23:08:52.471Z,14.70
2023-02-13T23:11:39.454Z,15.38
2023-02-13T23:14:08.443Z,14.98
2023-02-13T23:16:53.660Z,14.85
2023-02-13T23:19:25.329Z,14.40
2023-02-13T23:21:51.984Z,15.55
2023-02-13T23:24:19.779Z,14.02
2023-02-13T23:26:46.540Z,15.18
2023-02-13T23:29:13.378Z,15.00
2023-02-13T23:31:40.248Z,16.02
2023-02-13T23:34:07.199Z,15.65
2023-02-13T23:36:34.851Z,16.85
2023-02-13T23:39:01.481Z,15.95
2023-02-13T23:41:28.132Z,14.23
2023-02-13T23:43:54.929Z,16.23
2023-02-13T23:46:23.930Z,15.13
2023-02-13T23:48:50.788Z,15.98
2023-02-13T23:51:18.390Z,15.75
2023-02-13T23:53:47.673Z,16.13
2023-02-13T23:56:14.845Z,16.27
2023-02-13T23:58:41.467Z,15.63
